createdAt,value
2019-03-08T00:00:15.592Z,20.10
2019-03-08T00:02:52.123Z,20.10
2019-03-08T00:05:18.356Z,20.10
2019-03-08T00:07:44.303Z,20.10
2019-03-08T00:10:10.260Z,20.10
2019-03-08T00:12:36.275Z,20.10
2019-03-08T00:15:02.348Z,20.00
2019-03-08T00:17:28.378Z,20.00
2019-03-08T00:19:54.310Z,20.00
2019-03-08T00:22:21.078Z,20.00
2019-03-08T00:24:47.155Z,20.00
2019-03-08T00:27:13.206Z,20.00
2019-03-08T00:29:39.261Z,20.00
2019-03-08T00:32:05.317Z,20.00
2019-03-08T00:34:31.441Z,20.00
2019-03-08T00:36:57.482Z,20.00
2019-03-08T00:39:23.457Z,19.90
2019-03-08T00:41:49.914Z,19.90
2019-03-08T00:44:15.978Z,19.90
2019-03-08T00:46:42.052Z,19.90
2019-03-08T00:49:08.183Z,19.90
2019-03-08T00:51:34.344Z,19.90
2019-03-08T00:54:00.414Z,19.90
2019-03-08T00:56:26.458Z,19.90
2019-03-08T00:58:52.403Z,19.90
2019-03-08T01:01:18.648Z,19.90
2019-03-08T01:03:44.693Z,19.80
2019-03-08T01:06:10.777Z,19.80
2019-03-08T01:08:36.807Z,19.80
2019-03-08T01:11:02.775Z,19.80
2019-03-08T01:13:28.819Z,19.80
2019-03-08T01:15:54.875Z,19.80
2019-03-08T01:18:21.002Z,19.80
2019-03-08T01:20:46.945Z,19.80
2019-03-08T01:23:12.882Z,19.80
2019-03-08T01:25:38.948Z,19.80
2019-03-08T01:28:05.021Z,19.80
2019-03-08T01:30:31.075Z,19.80
2019-03-08T01:32:57.142Z,19.80
2019-03-08T01:35:23.199Z,19.70
2019-03-08T01:37:49.441Z,19.70
2019-03-08T01:40:15.471Z,19.80
2019-03-08T01:42:43.362Z,19.70
2019-03-08T01:45:09.501Z,19.70
2019-03-08T01:47:35.477Z,19.70
2019-03-08T01:50:01.533Z,19.70
2019-03-08T01:52:27.901Z,19.70
2019-03-08T01:54:53.951Z,19.70
2019-03-08T01:57:19.924Z,19.70
2019-03-08T01:59:45.973Z,19.70
2019-03-08T02:02:12.113Z,19.70
2019-03-08T02:04:38.425Z,19.70
2019-03-08T02:07:05.511Z,19.60
2019-03-08T02:09:31.591Z,19.60
2019-03-08T02:11:57.645Z,19.60
2019-03-08T02:14:23.909Z,19.60
2019-03-08T02:16:49.977Z,19.60
2019-03-08T02:19:16.022Z,19.60
2019-03-08T02:21:42.069Z,19.60
2019-03-08T02:24:08.102Z,19.60
2019-03-08T02:26:34.143Z,19.60
2019-03-08T02:29:00.102Z,19.60
2019-03-08T02:31:26.163Z,19.60
2019-03-08T02:33:52.305Z,19.60
2019-03-08T02:36:18.271Z,19.60
2019-03-08T02:38:44.337Z,19.50
2019-03-08T02:41:10.388Z,19.60
2019-03-08T02:43:36.453Z,19.50
2019-03-08T02:46:02.397Z,19.50
2019-03-08T02:48:28.431Z,19.50
2019-03-08T02:50:54.787Z,19.50
2019-03-08T02:53:20.839Z,19.50
2019-03-08T02:55:46.889Z,19.50
2019-03-08T02:58:12.944Z,19.50
2019-03-08T03:00:38.935Z,19.50
2019-03-08T03:03:05.008Z,19.50
2019-03-08T03:05:31.171Z,19.50
2019-03-08T03:07:57.290Z,19.50
2019-03-08T03:10:23.318Z,19.50
2019-03-08T03:12:49.924Z,19.50
2019-03-08T03:15:15.888Z,19.50
2019-03-08T03:17:41.855Z,19.50
2019-03-08T03:20:07.897Z,19.50
2019-03-08T03:22:34.430Z,19.40
2019-03-08T03:25:00.475Z,19.50
2019-03-08T03:27:26.817Z,19.50
2019-03-08T03:29:52.804Z,19.50
2019-03-08T03:32:18.847Z,19.40
2019-03-08T03:34:45.114Z,19.50
2019-03-08T03:37:11.207Z,19.40
2019-03-08T03:39:37.250Z,19.40
2019-03-08T03:42:03.296Z,19.40
2019-03-08T03:44:29.264Z,19.40
2019-03-08T03:46:55.537Z,19.40
2019-03-08T03:49:21.608Z,19.40
2019-03-08T03:51:47.848Z,19.40
2019-03-08T03:54:13.986Z,19.40
2019-03-08T03:56:39.964Z,19.40
2019-03-08T03:59:05.992Z,19.40
2019-03-08T04:01:33.869Z,19.40
2019-03-08T04:04:00.238Z,19.40
2019-03-08T04:06:26.306Z,19.40
2019-03-08T04:08:52.384Z,19.40
2019-03-08T04:11:18.393Z,19.30
2019-03-08T04:13:44.356Z,19.40
2019-03-08T04:16:10.400Z,19.40
2019-03-08T04:18:36.368Z,19.40
2019-03-08T04:21:02.410Z,19.40
2019-03-08T04:23:28.564Z,19.30
2019-03-08T04:25:54.602Z,19.40
2019-03-08T04:28:20.554Z,19.40
2019-03-08T04:30:46.610Z,19.30
2019-03-08T04:33:12.696Z,19.40
2019-03-08T04:35:38.655Z,19.40
2019-03-08T04:38:04.686Z,19.40
2019-03-08T04:40:30.640Z,19.40
2019-03-08T04:42:56.695Z,19.40
2019-03-08T04:45:22.752Z,19.40
2019-03-08T04:47:48.703Z,19.40
2019-03-08T04:50:14.781Z,19.30
2019-03-08T04:52:40.859Z,19.40
2019-03-08T04:55:06.912Z,19.40
2019-03-08T04:57:32.965Z,19.40
2019-03-08T04:59:58.907Z,19.40
2019-03-08T05:02:24.868Z,19.40
2019-03-08T05:04:50.929Z,19.40
2019-03-08T05:07:16.897Z,19.40
2019-03-08T05:09:42.929Z,19.40
2019-03-08T05:12:08.918Z,19.40
2019-03-08T05:14:34.975Z,19.40
2019-03-08T05:17:01.025Z,19.40
2019-03-08T05:19:27.397Z,19.40
2019-03-08T05:21:53.417Z,19.40
2019-03-08T05:24:19.358Z,19.40
2019-03-08T05:26:45.400Z,19.40
2019-03-08T05:29:11.453Z,19.40
2019-03-08T05:31:37.499Z,19.40
2019-03-08T05:34:03.537Z,19.40
2019-03-08T05:36:29.511Z,19.40
2019-03-08T05:38:55.750Z,19.40
2019-03-08T05:41:21.690Z,19.40
2019-03-08T05:43:47.725Z,19.40
2019-03-08T05:46:13.677Z,19.50
2019-03-08T05:48:39.771Z,19.50
2019-03-08T05:51:05.821Z,19.50
2019-03-08T05:53:31.766Z,19.50
2019-03-08T05:55:57.735Z,19.50
2019-03-08T05:58:24.070Z,19.50
2019-03-08T06:00:50.044Z,19.50
2019-03-08T06:03:16.078Z,19.50
2019-03-08T06:05:42.040Z,19.50
2019-03-08T06:08:08.079Z,19.50
2019-03-08T06:10:34.031Z,19.60
2019-03-08T06:13:00.100Z,19.60
2019-03-08T06:15:26.137Z,19.60
2019-03-08T06:17:52.580Z,19.70
2019-03-08T06:20:18.641Z,19.70
2019-03-08T06:22:44.951Z,19.70
2019-03-08T06:25:11.214Z,19.70
2019-03-08T06:27:37.277Z,19.80
2019-03-08T06:30:03.314Z,19.80
2019-03-08T06:32:29.571Z,19.80
2019-03-08T06:34:55.631Z,19.90
2019-03-08T06:37:21.803Z,20.00
2019-03-08T06:39:47.879Z,20.00
2019-03-08T06:42:13.943Z,20.10
2019-03-08T06:44:40.000Z,20.10
2019-03-08T06:47:05.937Z,20.10
2019-03-08T06:49:31.881Z,20.20
2019-03-08T06:51:57.927Z,20.20
2019-03-08T06:54:23.975Z,20.20
2019-03-08T06:56:50.235Z,20.20
2019-03-08T06:59:18.191Z,20.20
2019-03-08T07:01:44.237Z,20.20
2019-03-08T07:04:10.209Z,20.20
2019-03-08T07:06:36.157Z,20.30
2019-03-08T07:09:02.158Z,20.30
2019-03-08T07:11:28.197Z,20.40
2019-03-08T07:13:54.158Z,20.40
2019-03-08T07:16:20.420Z,20.50
2019-03-08T07:18:46.457Z,20.60
2019-03-08T07:21:14.449Z,20.60
2019-03-08T07:23:57.799Z,20.60
2019-03-08T07:26:28.570Z,20.60
2019-03-08T07:28:59.532Z,20.70
2019-03-08T07:31:27.377Z,20.70
2019-03-08T07:34:04.292Z,20.70
2019-03-08T07:36:50.555Z,20.70
2019-03-08T07:39:35.717Z,20.80
2019-03-08T07:42:22.115Z,20.80
2019-03-08T07:45:07.146Z,20.80
2019-03-08T07:47:43.915Z,20.80
2019-03-08T07:50:14.542Z,20.80
2019-03-08T07:52:52.052Z,20.90
2019-03-08T07:55:29.224Z,20.90
2019-03-08T07:58:09.311Z,20.90
2019-03-08T08:00:37.259Z,20.90
2019-03-08T08:03:14.494Z,20.90
2019-03-08T08:05:45.684Z,21.00
2019-03-08T08:08:13.656Z,21.00
2019-03-08T08:10:53.517Z,21.00
2019-03-08T08:13:36.855Z,21.00
2019-03-08T08:16:07.713Z,21.00
2019-03-08T08:18:41.374Z,21.00
2019-03-08T08:21:18.243Z,21.00
2019-03-08T08:23:46.532Z,21.10
2019-03-08T08:26:14.499Z,21.10
2019-03-08T08:28:49.687Z,21.10
2019-03-08T08:31:27.278Z,21.10
2019-03-08T08:33:58.273Z,21.00
2019-03-08T08:36:38.296Z,21.00
2019-03-08T08:39:22.798Z,21.00
2019-03-08T08:41:53.545Z,21.00
2019-03-08T08:44:27.648Z,21.00
2019-03-08T08:47:04.510Z,21.10
2019-03-08T08:49:54.058Z,21.10
2019-03-08T08:52:14.448Z,21.10
2019-03-08T08:54:42.435Z,21.10
2019-03-08T08:57:13.128Z,21.10
2019-03-08T08:59:43.798Z,21.20
2019-03-08T09:02:11.740Z,21.20
2019-03-08T09:04:51.712Z,21.20
2019-03-08T09:07:22.663Z,21.20
2019-03-08T09:09:50.622Z,21.20
2019-03-08T09:12:25.351Z,21.20
2019-03-08T09:14:59.410Z,21.20
2019-03-08T09:17:27.279Z,21.30
2019-03-08T09:19:59.295Z,21.30
2019-03-08T09:22:27.413Z,21.30
2019-03-08T09:25:07.495Z,21.30
2019-03-08T09:27:35.441Z,21.30
2019-03-08T09:30:12.824Z,21.30
2019-03-08T09:32:46.832Z,21.30
2019-03-08T09:35:20.736Z,21.40
2019-03-08T09:37:51.383Z,21.40
2019-03-08T09:40:19.328Z,21.40
2019-03-08T09:43:14.392Z,21.40
2019-03-08T09:45:48.308Z,21.40
2019-03-08T09:48:25.462Z,21.50
2019-03-08T09:50:53.300Z,21.50
2019-03-08T09:53:24.178Z,21.50
2019-03-08T09:56:08.917Z,21.60
2019-03-08T09:58:36.784Z,21.60
2019-03-08T10:01:16.233Z,21.60
2019-03-08T10:03:46.377Z,21.50
2019-03-08T10:06:25.475Z,21.50
2019-03-08T10:09:10.217Z,21.40
2019-03-08T10:11:38.098Z,21.40
2019-03-08T10:14:14.958Z,21.50
2019-03-08T10:16:45.873Z,21.50
2019-03-08T10:19:16.817Z,21.60
2019-03-08T10:21:44.753Z,21.60
2019-03-08T10:24:24.996Z,21.60
2019-03-08T10:27:09.571Z,21.70
2019-03-08T10:29:55.719Z,21.70
2019-03-08T10:32:40.433Z,21.70
2019-03-08T10:35:14.300Z,21.70
2019-03-08T10:37:43.842Z,21.70
2019-03-08T10:40:11.797Z,21.70
2019-03-08T10:42:54.969Z,21.70
2019-03-08T10:45:22.952Z,21.70
2019-03-08T10:47:55.977Z,21.70
2019-03-08T10:50:23.969Z,21.70
2019-03-08T10:52:58.255Z,21.70
2019-03-08T10:55:26.210Z,21.70
2019-03-08T10:57:57.298Z,21.70
2019-03-08T11:00:25.363Z,21.80
2019-03-08T11:02:59.369Z,21.80
2019-03-08T11:05:30.145Z,22.00
2019-03-08T11:07:58.109Z,21.80
2019-03-08T11:10:29.085Z,21.80
2019-03-08T11:12:57.144Z,21.80
2019-03-08T11:15:43.554Z,21.80
2019-03-08T11:18:11.494Z,21.80
2019-03-08T11:20:39.437Z,21.80
2019-03-08T11:23:07.327Z,21.80
2019-03-08T11:25:52.039Z,21.80
2019-03-08T11:28:38.373Z,21.80
2019-03-08T11:31:09.353Z,21.80
2019-03-08T11:33:49.587Z,21.80
2019-03-08T11:36:23.451Z,21.80
2019-03-08T11:38:57.382Z,21.80
2019-03-08T11:41:25.385Z,21.70
2019-03-08T11:43:59.400Z,21.70
2019-03-08T11:46:27.376Z,21.70
2019-03-08T11:49:01.039Z,21.70
2019-03-08T11:51:29.027Z,21.70
2019-03-08T11:53:57.004Z,21.70
2019-03-08T11:56:40.041Z,21.70
2019-03-08T11:59:07.913Z,21.70
2019-03-08T12:01:50.916Z,21.70
2019-03-08T12:04:28.230Z,21.70
2019-03-08T12:06:56.113Z,21.70
2019-03-08T12:09:26.985Z,21.80
2019-03-08T12:12:10.286Z,21.80
2019-03-08T12:14:41.400Z,21.80
2019-03-08T12:17:15.377Z,21.80
2019-03-08T12:19:46.373Z,21.80
2019-03-08T12:22:17.176Z,21.80
2019-03-08T12:24:54.336Z,21.90
2019-03-08T12:27:22.358Z,21.90
2019-03-08T12:30:04.172Z,21.90
2019-03-08T12:32:49.478Z,21.90
2019-03-08T12:35:34.032Z,21.90
2019-03-08T12:38:17.318Z,21.90
2019-03-08T12:40:54.450Z,21.90
2019-03-08T12:43:28.224Z,21.90
2019-03-08T12:46:04.969Z,22.00
2019-03-08T12:48:44.778Z,21.90
2019-03-08T12:51:15.680Z,22.00
2019-03-08T12:53:46.378Z,22.00
2019-03-08T12:56:26.552Z,22.00
2019-03-08T12:59:00.556Z,22.00
2019-03-08T13:01:37.555Z,22.00
2019-03-08T13:04:08.495Z,22.00
2019-03-08T13:06:54.840Z,22.00
2019-03-08T13:09:34.550Z,22.00
2019-03-08T13:12:00.494Z,22.00
2019-03-08T13:14:26.468Z,22.00
2019-03-08T13:16:52.542Z,21.90
2019-03-08T13:19:18.588Z,21.90
2019-03-08T13:21:44.535Z,21.80
2019-03-08T13:24:10.784Z,21.80
2019-03-08T13:26:36.738Z,21.80
2019-03-08T13:29:02.686Z,21.90
2019-03-08T13:31:28.654Z,21.90
2019-03-08T13:33:54.609Z,21.90
2019-03-08T13:36:20.574Z,21.90
2019-03-08T13:38:46.628Z,21.90
2019-03-08T13:41:12.622Z,21.90
2019-03-08T13:43:38.763Z,22.00
2019-03-08T13:46:04.833Z,22.00
2019-03-08T13:48:30.888Z,22.00
2019-03-08T13:50:56.927Z,22.00
2019-03-08T13:53:22.910Z,22.00
2019-03-08T13:55:48.950Z,22.00
2019-03-08T13:58:15.016Z,22.00
2019-03-08T14:00:41.393Z,22.00
2019-03-08T14:03:07.507Z,22.00
2019-03-08T14:05:33.556Z,22.00
2019-03-08T14:07:59.608Z,22.00
2019-03-08T14:10:25.672Z,22.00
2019-03-08T14:12:51.986Z,22.10
2019-03-08T14:15:18.062Z,22.10
2019-03-08T14:17:44.107Z,22.00
2019-03-08T14:20:10.397Z,22.10
2019-03-08T14:22:36.614Z,22.10
2019-03-08T14:25:02.706Z,22.10
2019-03-08T14:27:28.753Z,22.10
2019-03-08T14:29:55.198Z,22.10
2019-03-08T14:32:25.408Z,22.10
2019-03-08T14:34:53.662Z,22.10
2019-03-08T14:37:19.909Z,22.10
2019-03-08T14:39:46.289Z,22.10
2019-03-08T14:42:15.613Z,22.10
2019-03-08T14:44:43.719Z,22.10
2019-03-08T14:47:11.573Z,22.10
2019-03-08T14:49:37.615Z,22.10
2019-03-08T14:52:03.866Z,22.10
2019-03-08T14:54:29.831Z,22.00
2019-03-08T14:56:55.877Z,22.00
2019-03-08T14:59:21.819Z,22.00
2019-03-08T15:01:47.773Z,21.90
2019-03-08T15:04:13.712Z,21.90
2019-03-08T15:06:39.710Z,21.90
2019-03-08T15:09:06.041Z,22.00
2019-03-08T15:11:32.069Z,22.00
2019-03-08T15:13:59.082Z,22.00
2019-03-08T15:16:25.295Z,22.00
2019-03-08T15:18:51.225Z,22.00
2019-03-08T15:21:17.201Z,22.00
2019-03-08T15:23:43.270Z,22.00
2019-03-08T15:26:09.514Z,22.00
2019-03-08T15:28:35.473Z,22.00
2019-03-08T15:31:01.408Z,22.10
2019-03-08T15:33:27.374Z,22.10
2019-03-08T15:35:53.421Z,22.10
2019-03-08T15:38:19.524Z,22.10
2019-03-08T15:40:45.554Z,22.10
2019-03-08T15:43:13.608Z,22.10
2019-03-08T15:45:40.102Z,22.10
2019-03-08T15:48:10.960Z,22.10
2019-03-08T15:50:35.391Z,22.10
2019-03-08T15:53:01.455Z,22.10
2019-03-08T15:55:28.538Z,22.10
2019-03-08T15:57:54.876Z,22.10
2019-03-08T16:00:20.937Z,22.10
2019-03-08T16:02:51.826Z,22.10
2019-03-08T16:05:19.639Z,22.10
2019-03-08T16:07:45.721Z,22.10
2019-03-08T16:10:11.661Z,22.20
2019-03-08T16:12:37.626Z,22.20
2019-03-08T16:15:03.574Z,22.20
2019-03-08T16:17:29.607Z,22.10
2019-03-08T16:19:58.853Z,22.20
2019-03-08T16:22:24.714Z,22.20
2019-03-08T16:24:52.139Z,22.20
2019-03-08T16:27:18.188Z,22.10
2019-03-08T16:29:44.460Z,22.10
2019-03-08T16:32:15.197Z,22.10
2019-03-08T16:34:41.125Z,22.10
2019-03-08T16:37:27.270Z,22.10
2019-03-08T16:39:55.573Z,22.10
2019-03-08T16:42:26.286Z,22.10
2019-03-08T16:44:54.206Z,21.50
2019-03-08T16:47:37.241Z,22.10
2019-03-08T16:50:05.521Z,22.10
2019-03-08T16:52:38.579Z,22.10
2019-03-08T16:55:23.585Z,22.10
2019-03-08T16:57:51.445Z,22.10
2019-03-08T17:00:22.569Z,22.20
2019-03-08T17:02:51.433Z,22.20
2019-03-08T17:05:36.042Z,22.20
2019-03-08T17:08:13.201Z,22.20
2019-03-08T17:10:44.262Z,22.20
2019-03-08T17:13:28.957Z,22.20
2019-03-08T17:15:59.965Z,22.20
2019-03-08T17:18:30.685Z,22.20
2019-03-08T17:20:58.554Z,22.10
2019-03-08T17:23:26.501Z,22.10
2019-03-08T17:25:54.506Z,22.20
2019-03-08T17:28:39.334Z,22.10
2019-03-08T17:31:07.296Z,22.20
2019-03-08T17:33:35.172Z,22.20
2019-03-08T17:36:03.130Z,22.20
2019-03-08T17:38:43.446Z,22.20
2019-03-08T17:41:11.396Z,22.20
2019-03-08T17:43:45.319Z,22.10
2019-03-08T17:46:30.182Z,22.20
2019-03-08T17:49:01.165Z,22.20
2019-03-08T17:51:32.070Z,22.20
2019-03-08T17:54:05.973Z,22.20
2019-03-08T17:56:39.830Z,22.20
2019-03-08T17:59:11.261Z,22.20
2019-03-08T18:01:45.183Z,22.10
2019-03-08T18:04:22.152Z,22.10
2019-03-08T18:07:08.182Z,22.10
2019-03-08T18:09:36.171Z,22.10
2019-03-08T18:12:16.266Z,22.10
2019-03-08T18:14:50.158Z,22.10
2019-03-08T18:17:21.346Z,22.10
2019-03-08T18:19:49.201Z,22.10
2019-03-08T18:22:17.055Z,22.10
2019-03-08T18:24:56.880Z,22.20
2019-03-08T18:27:27.528Z,22.10
2019-03-08T18:30:01.322Z,22.20
2019-03-08T18:32:41.720Z,22.20
2019-03-08T18:35:15.548Z,22.20
2019-03-08T18:37:43.386Z,22.20
2019-03-08T18:40:11.240Z,22.20
2019-03-08T18:42:42.168Z,22.20
2019-03-08T18:45:10.133Z,22.20
2019-03-08T18:47:40.771Z,22.20
2019-03-08T18:50:17.982Z,22.20
2019-03-08T18:52:57.972Z,22.20
2019-03-08T18:55:31.763Z,21.40
2019-03-08T18:58:12.315Z,22.20
2019-03-08T19:00:58.505Z,22.20
2019-03-08T19:03:32.384Z,22.20
2019-03-08T19:06:03.303Z,22.20
2019-03-08T19:08:49.684Z,22.20
2019-03-08T19:11:23.485Z,22.20
2019-03-08T19:13:51.655Z,22.20
2019-03-08T19:16:25.301Z,22.30
2019-03-08T19:19:08.276Z,22.30
2019-03-08T19:21:36.273Z,22.30
2019-03-08T19:24:13.614Z,22.30
2019-03-08T19:26:44.633Z,22.30
2019-03-08T19:29:29.181Z,22.30
2019-03-08T19:31:57.462Z,22.30
2019-03-08T19:34:31.656Z,22.30
2019-03-08T19:37:16.483Z,22.20
2019-03-08T19:39:47.235Z,22.20
2019-03-08T19:42:15.191Z,22.20
2019-03-08T19:44:55.408Z,22.20
2019-03-08T19:47:26.301Z,22.20
2019-03-08T19:50:11.034Z,22.20
2019-03-08T19:52:52.010Z,22.20
2019-03-08T19:55:19.971Z,22.20
2019-03-08T19:58:04.427Z,22.20
2019-03-08T20:00:48.971Z,22.20
2019-03-08T20:03:19.818Z,22.30
2019-03-08T20:05:53.838Z,22.30
2019-03-08T20:08:27.579Z,22.30
2019-03-08T20:11:07.555Z,22.30
2019-03-08T20:13:50.532Z,22.30
2019-03-08T20:16:33.266Z,22.30
2019-03-08T20:19:06.921Z,22.30
2019-03-08T20:21:34.795Z,22.30
2019-03-08T20:24:02.855Z,22.40
2019-03-08T20:26:36.886Z,22.40
2019-03-08T20:29:11.055Z,22.40
2019-03-08T20:31:41.752Z,22.40
2019-03-08T20:34:10.099Z,22.40
2019-03-08T20:36:47.083Z,22.40
2019-03-08T20:39:33.381Z,22.40
2019-03-08T20:42:01.321Z,22.40
2019-03-08T20:44:29.197Z,22.40
2019-03-08T20:46:57.159Z,22.40
2019-03-08T20:49:23.193Z,22.40
2019-03-08T20:51:49.281Z,22.40
2019-03-08T20:54:15.330Z,22.40
2019-03-08T20:56:41.279Z,22.40
2019-03-08T20:59:07.427Z,22.40
2019-03-08T21:01:33.403Z,22.40
2019-03-08T21:03:59.450Z,22.40
2019-03-08T21:06:25.494Z,22.40
2019-03-08T21:08:51.454Z,22.40
2019-03-08T21:11:17.503Z,22.40
2019-03-08T21:13:43.569Z,22.40
2019-03-08T21:16:09.730Z,22.40
2019-03-08T21:18:35.703Z,22.30
2019-03-08T21:21:01.745Z,22.30
2019-03-08T21:23:27.714Z,22.20
2019-03-08T21:25:53.660Z,22.20
2019-03-08T21:28:19.609Z,22.10
2019-03-08T21:30:45.590Z,22.10
2019-03-08T21:33:11.864Z,22.10
2019-03-08T21:35:37.928Z,22.10
2019-03-08T21:38:03.978Z,22.10
2019-03-08T21:40:30.019Z,22.00
2019-03-08T21:42:56.140Z,22.00
2019-03-08T21:45:22.093Z,22.00
2019-03-08T21:47:48.042Z,22.00
2019-03-08T21:50:14.238Z,22.00
2019-03-08T21:52:40.211Z,22.00
2019-03-08T21:55:06.279Z,22.00
2019-03-08T21:57:32.320Z,22.10
2019-03-08T21:59:58.272Z,22.10
2019-03-08T22:02:24.328Z,22.10
2019-03-08T22:04:50.603Z,22.10
2019-03-08T22:07:16.684Z,22.10
2019-03-08T22:09:47.272Z,22.10
2019-03-08T22:12:13.222Z,22.10
2019-03-08T22:14:39.264Z,22.10
2019-03-08T22:17:05.278Z,22.00
2019-03-08T22:19:31.346Z,22.00
2019-03-08T22:21:57.757Z,22.00
2019-03-08T22:24:23.779Z,22.00
2019-03-08T22:26:49.848Z,22.00
2019-03-08T22:29:15.884Z,22.00
2019-03-08T22:31:41.850Z,22.00
2019-03-08T22:34:07.891Z,22.00
2019-03-08T22:36:33.861Z,22.00
2019-03-08T22:39:00.134Z,22.00
2019-03-08T22:41:26.161Z,22.00
2019-03-08T22:43:52.102Z,22.10
2019-03-08T22:46:18.047Z,22.10
2019-03-08T22:48:44.129Z,22.10
2019-03-08T22:51:10.084Z,22.10
2019-03-08T22:53:36.046Z,22.10
2019-03-08T22:56:02.081Z,22.10
2019-03-08T22:58:28.062Z,22.10
2019-03-08T23:00:59.218Z,22.00
2019-03-08T23:03:25.270Z,22.00
2019-03-08T23:05:51.227Z,22.00
2019-03-08T23:08:17.175Z,21.90
2019-03-08T23:10:43.361Z,21.90
2019-03-08T23:13:09.401Z,21.90
2019-03-08T23:15:35.375Z,21.90
2019-03-08T23:18:01.319Z,21.90
2019-03-08T23:20:27.252Z,21.90
2019-03-08T23:22:53.556Z,21.80
2019-03-08T23:25:19.622Z,21.80
2019-03-08T23:27:47.837Z,21.80
2019-03-08T23:30:15.791Z,21.70
2019-03-08T23:32:43.177Z,21.70
2019-03-08T23:35:09.141Z,21.70
2019-03-08T23:37:35.177Z,21.70
2019-03-08T23:40:01.123Z,21.70
2019-03-08T23:42:27.739Z,21.70
2019-03-08T23:44:53.700Z,21.70
2019-03-08T23:47:19.670Z,21.70
2019-03-08T23:49:45.621Z,21.60
2019-03-08T23:52:11.601Z,21.60
2019-03-08T23:54:37.664Z,21.60
2019-03-08T23:57:03.708Z,21.60
2019-03-08T23:59:29.868Z,21.60
